Andrews Air Force Base
KADW : rendu visible

Aérodrome :











RETROUVEZ-NOUS SUR...

 
LOGIN :

S'inscrire | Disclaimer

   EN    FR    IT 

 









Légende :    VFR   VFR Marginal   IFR   IFR Intensif   IFR Très Intensif
Visi : 
Plafond : 
>= 8 km
>= 3000ft
5 à 8 km
1000 à 3000 ft
1500m à 5 km
500 à 1000 ft
800 à 1500m
200 à 500 ft
< 800m
< 200 ft
Symboles :   Orages  Brouillard  Fortes neiges  Fortes précipitations  Vent > 20 kt






- Altitude de l'aérodrome : 280 ft


KADW - Andrews Air Force Base

DERNIER METAR :
  • 202356Z AUTO 30007KT 10SM BKN060 09/00 A3015 RMK AO2 SLP218 T00891002 10113 20084 52020 $

METARs EXPIRÉS :
  • 202256Z AUTO 32010KT 10SM BKN055 09/00 A3013 RMK AO2 SLP211 T00911005 $
  • 202156Z AUTO 31009KT 10SM OVC055 10/00 A3011 RMK AO2 SLP204 T00960002 $

TAF TAF KADW
Valide du 20 à 17h jusqu'au 21 à 23h UTC


201700Z 2017/2123 31010G20KT 9999 SCT050 BKN070 QNH3004INS
BECMG 2021/2022 31008KT 9999 SCT020 SCT050 QNH3010INS
BECMG 2120/2121 31008KT 9999 BKN200 QNH3013INS TX11/2019Z TN03/2112Z



MET'MAP, la Météo Aéronautique d'un coup d'oeil ! - Copyright ORBIFLY Décembre 2007 - Disclaimer

ORBIFLY MET'MAP TEAM :

Programmation & Développement : Alexandra Zaïnal
Conception & Développement : Baudouin d'Aumeries
Co-Programmation & Développement : Marc-Olivier Méhu
Soutien technique & logistique : Manuel Goepfert

Contact : metmap@orbifly.com




SOURCES & CREDITS :

   NOAA       Earth
Advisory